sensor_id;sensor_type;location;lat;lon;timestamp;P1;durP1;ratioP1;P2;durP2;ratioP2
75413;SDS011;64758;52.122;5.404;2024-02-21T00:01:35;7.18;;;2.45;;
75413;SDS011;64758;52.122;5.404;2024-02-21T00:04:02;7.63;;;1.83;;
75413;SDS011;64758;52.122;5.404;2024-02-21T00:06:29;7.83;;;2.07;;
75413;SDS011;64758;52.122;5.404;2024-02-21T00:08:56;9.57;;;1.90;;
75413;SDS011;64758;52.122;5.404;2024-02-21T00:11:22;8.02;;;2.25;;
75413;SDS011;64758;52.122;5.404;2024-02-21T00:13:49;6.93;;;2.53;;
75413;SDS011;64758;52.122;5.404;2024-02-21T00:16:17;7.93;;;2.72;;
75413;SDS011;64758;52.122;5.404;2024-02-21T00:18:43;7.70;;;2.00;;
75413;SDS011;64758;52.122;5.404;2024-02-21T00:21:10;6.43;;;1.75;;
75413;SDS011;64758;52.122;5.404;2024-02-21T00:23:44;6.68;;;2.20;;
75413;SDS011;64758;52.122;5.404;2024-02-21T00:26:12;6.32;;;2.08;;
75413;SDS011;64758;52.122;5.404;2024-02-21T00:28:42;5.57;;;1.70;;
75413;SDS011;64758;52.122;5.404;2024-02-21T00:31:09;5.80;;;1.87;;
75413;SDS011;64758;52.122;5.404;2024-02-21T00:33:36;9.93;;;2.30;;
75413;SDS011;64758;52.122;5.404;2024-02-21T00:36:03;4.25;;;1.80;;
75413;SDS011;64758;52.122;5.404;2024-02-21T00:38:30;8.80;;;1.95;;
75413;SDS011;64758;52.122;5.404;2024-02-21T00:40:56;5.78;;;2.20;;
75413;SDS011;64758;52.122;5.404;2024-02-21T00:43:23;11.33;;;1.83;;
75413;SDS011;64758;52.122;5.404;2024-02-21T00:45:50;6.72;;;1.45;;
75413;SDS011;64758;52.122;5.404;2024-02-21T00:48:17;6.65;;;1.77;;
75413;SDS011;64758;52.122;5.404;2024-02-21T00:50:44;9.23;;;2.25;;
75413;SDS011;64758;52.122;5.404;2024-02-21T00:53:10;5.43;;;1.60;;
75413;SDS011;64758;52.122;5.404;2024-02-21T00:55:37;9.97;;;2.07;;
75413;SDS011;64758;52.122;5.404;2024-02-21T00:58:04;5.60;;;1.60;;
75413;SDS011;64758;52.122;5.404;2024-02-21T01:00:30;7.18;;;2.22;;
75413;SDS011;64758;52.122;5.404;2024-02-21T01:02:57;5.32;;;2.05;;
75413;SDS011;64758;52.122;5.404;2024-02-21T01:05:23;7.55;;;2.05;;
75413;SDS011;64758;52.122;5.404;2024-02-21T01:07:50;5.13;;;1.53;;
75413;SDS011;64758;52.122;5.404;2024-02-21T01:10:16;6.57;;;1.90;;
75413;SDS011;64758;52.122;5.404;2024-02-21T01:12:43;9.93;;;1.63;;
75413;SDS011;64758;52.122;5.404;2024-02-21T01:15:10;6.97;;;1.90;;
75413;SDS011;64758;52.122;5.404;2024-02-21T01:17:37;11.65;;;2.17;;
75413;SDS011;64758;52.122;5.404;2024-02-21T01:20:07;7.97;;;1.90;;
75413;SDS011;64758;52.122;5.404;2024-02-21T01:22:34;6.15;;;1.67;;
75413;SDS011;64758;52.122;5.404;2024-02-21T01:25:01;7.38;;;2.20;;
75413;SDS011;64758;52.122;5.404;2024-02-21T01:27:27;8.65;;;1.92;;
75413;SDS011;64758;52.122;5.404;2024-02-21T01:29:54;8.05;;;2.78;;
75413;SDS011;64758;52.122;5.404;2024-02-21T01:32:21;8.43;;;2.03;;
75413;SDS011;64758;52.122;5.404;2024-02-21T01:34:50;6.63;;;1.95;;
75413;SDS011;64758;52.122;5.404;2024-02-21T01:37:18;9.40;;;2.60;;
75413;SDS011;64758;52.122;5.404;2024-02-21T01:39:44;6.07;;;2.17;;
75413;SDS011;64758;52.122;5.404;2024-02-21T01:42:11;10.80;;;3.03;;
75413;SDS011;64758;52.122;5.404;2024-02-21T01:44:37;10.97;;;2.20;;
75413;SDS011;64758;52.122;5.404;2024-02-21T01:47:04;10.82;;;2.53;;
75413;SDS011;64758;52.122;5.404;2024-02-21T01:49:31;11.23;;;2.53;;
75413;SDS011;64758;52.122;5.404;2024-02-21T01:51:58;12.18;;;2.85;;
75413;SDS011;64758;52.122;5.404;2024-02-21T01:54:24;8.38;;;2.60;;
75413;SDS011;64758;52.122;5.404;2024-02-21T01:56:54;9.67;;;2.37;;
75413;SDS011;64758;52.122;5.404;2024-02-21T01:59:21;7.40;;;2.63;;
75413;SDS011;64758;52.122;5.404;2024-02-21T02:01:48;12.65;;;2.92;;
75413;SDS011;64758;52.122;5.404;2024-02-21T02:04:17;8.18;;;2.92;;
75413;SDS011;64758;52.122;5.404;2024-02-21T02:06:44;7.15;;;2.55;;
75413;SDS011;64758;52.122;5.404;2024-02-21T02:09:11;12.03;;;2.73;;
75413;SDS011;64758;52.122;5.404;2024-02-21T02:11:37;10.75;;;2.85;;
75413;SDS011;64758;52.122;5.404;2024-02-21T02:14:04;7.63;;;2.78;;
75413;SDS011;64758;52.122;5.404;2024-02-21T02:16:31;7.68;;;2.83;;
75413;SDS011;64758;52.122;5.404;2024-02-21T02:18:57;9.57;;;2.80;;
75413;SDS011;64758;52.122;5.404;2024-02-21T02:21:27;9.47;;;2.70;;
75413;SDS011;64758;52.122;5.404;2024-02-21T02:23:56;9.23;;;2.83;;
75413;SDS011;64758;52.122;5.404;2024-02-21T02:26:23;7.90;;;2.60;;
75413;SDS011;64758;52.122;5.404;2024-02-21T02:28:49;10.60;;;2.70;;
75413;SDS011;64758;52.122;5.404;2024-02-21T02:31:16;11.25;;;2.88;;
75413;SDS011;64758;52.122;5.404;2024-02-21T02:33:43;9.93;;;2.90;;
75413;SDS011;64758;52.122;5.404;2024-02-21T02:36:10;9.35;;;2.97;;
75413;SDS011;64758;52.122;5.404;2024-02-21T02:38:37;7.60;;;3.28;;
75413;SDS011;64758;52.122;5.404;2024-02-21T02:41:03;10.95;;;3.00;;
75413;SDS011;64758;52.122;5.404;2024-02-21T02:43:30;11.05;;;3.45;;
75413;SDS011;64758;52.122;5.404;2024-02-21T02:45:57;9.73;;;2.80;;
75413;SDS011;64758;52.122;5.404;2024-02-21T02:48:24;15.80;;;3.42;;
75413;SDS011;64758;52.122;5.404;2024-02-21T02:50:51;11.10;;;3.10;;
75413;SDS011;64758;52.122;5.404;2024-02-21T02:53:17;11.77;;;3.03;;
75413;SDS011;64758;52.122;5.404;2024-02-21T02:55:44;9.48;;;2.83;;
75413;SDS011;64758;52.122;5.404;2024-02-21T02:58:11;10.23;;;2.83;;
75413;SDS011;64758;52.122;5.404;2024-02-21T03:00:38;10.73;;;2.60;;
75413;SDS011;64758;52.122;5.404;2024-02-21T03:03:05;6.47;;;3.13;;
75413;SDS011;64758;52.122;5.404;2024-02-21T03:05:32;10.10;;;2.40;;
75413;SDS011;64758;52.122;5.404;2024-02-21T03:07:59;8.75;;;3.00;;
75413;SDS011;64758;52.122;5.404;2024-02-21T03:10:26;10.40;;;2.80;;
75413;SDS011;64758;52.122;5.404;2024-02-21T03:12:52;12.10;;;3.05;;
75413;SDS011;64758;52.122;5.404;2024-02-21T03:15:19;8.88;;;2.45;;
75413;SDS011;64758;52.122;5.404;2024-02-21T03:17:46;12.43;;;3.45;;
75413;SDS011;64758;52.122;5.404;2024-02-21T03:20:12;9.77;;;2.58;;
75413;SDS011;64758;52.122;5.404;2024-02-21T03:22:40;7.60;;;2.63;;
75413;SDS011;64758;52.122;5.404;2024-02-21T03:25:08;8.55;;;2.67;;
75413;SDS011;64758;52.122;5.404;2024-02-21T03:27:35;8.68;;;2.50;;
75413;SDS011;64758;52.122;5.404;2024-02-21T03:30:01;5.47;;;2.30;;
75413;SDS011;64758;52.122;5.404;2024-02-21T03:32:28;8.02;;;2.90;;
75413;SDS011;64758;52.122;5.404;2024-02-21T03:34:55;9.03;;;2.77;;
75413;SDS011;64758;52.122;5.404;2024-02-21T03:37:22;11.88;;;3.17;;
75413;SDS011;64758;52.122;5.404;2024-02-21T03:39:49;8.73;;;3.63;;
75413;SDS011;64758;52.122;5.404;2024-02-21T03:42:15;10.15;;;2.88;;
75413;SDS011;64758;52.122;5.404;2024-02-21T03:44:42;9.23;;;3.45;;
75413;SDS011;64758;52.122;5.404;2024-02-21T03:47:08;11.63;;;3.13;;
75413;SDS011;64758;52.122;5.404;2024-02-21T03:49:37;10.95;;;4.28;;
75413;SDS011;64758;52.122;5.404;2024-02-21T03:52:05;6.15;;;2.78;;
75413;SDS011;64758;52.122;5.404;2024-02-21T03:54:31;6.63;;;2.80;;
75413;SDS011;64758;52.122;5.404;2024-02-21T03:56:58;9.90;;;2.83;;
75413;SDS011;64758;52.122;5.404;2024-02-21T03:59:24;7.77;;;2.90;;
75413;SDS011;64758;52.122;5.404;2024-02-21T04:01:52;7.03;;;3.25;;
75413;SDS011;64758;52.122;5.404;2024-02-21T04:04:19;6.50;;;2.60;;
75413;SDS011;64758;52.122;5.404;2024-02-21T04:06:46;9.30;;;3.00;;
75413;SDS011;64758;52.122;5.404;2024-02-21T04:09:13;9.32;;;3.55;;
75413;SDS011;64758;52.122;5.404;2024-02-21T04:11:40;9.50;;;2.87;;
75413;SDS011;64758;52.122;5.404;2024-02-21T04:14:06;4.63;;;2.30;;
75413;SDS011;64758;52.122;5.404;2024-02-21T04:16:34;6.65;;;2.60;;
75413;SDS011;64758;52.122;5.404;2024-02-21T04:19:01;6.10;;;3.00;;
75413;SDS011;64758;52.122;5.404;2024-02-21T04:21:28;8.02;;;2.83;;
75413;SDS011;64758;52.122;5.404;2024-02-21T04:23:55;9.33;;;2.90;;
75413;SDS011;64758;52.122;5.404;2024-02-21T04:26:21;7.63;;;2.67;;
75413;SDS011;64758;52.122;5.404;2024-02-21T04:28:48;6.85;;;3.17;;
75413;SDS011;64758;52.122;5.404;2024-02-21T04:31:15;11.07;;;3.05;;
75413;SDS011;64758;52.122;5.404;2024-02-21T04:33:41;5.47;;;3.10;;
75413;SDS011;64758;52.122;5.404;2024-02-21T04:36:08;9.37;;;2.93;;
75413;SDS011;64758;52.122;5.404;2024-02-21T04:38:35;7.15;;;3.00;;
75413;SDS011;64758;52.122;5.404;2024-02-21T04:41:02;4.43;;;2.80;;
75413;SDS011;64758;52.122;5.404;2024-02-21T04:43:28;7.55;;;2.75;;
75413;SDS011;64758;52.122;5.404;2024-02-21T04:45:55;11.82;;;3.53;;
75413;SDS011;64758;52.122;5.404;2024-02-21T04:48:22;7.67;;;2.77;;
75413;SDS011;64758;52.122;5.404;2024-02-21T04:50:48;7.28;;;2.72;;
75413;SDS011;64758;52.122;5.404;2024-02-21T04:53:15;11.23;;;3.90;;
75413;SDS011;64758;52.122;5.404;2024-02-21T04:55:42;7.40;;;3.08;;
75413;SDS011;64758;52.122;5.404;2024-02-21T04:58:09;7.78;;;3.10;;
75413;SDS011;64758;52.122;5.404;2024-02-21T05:00:35;7.73;;;3.10;;
75413;SDS011;64758;52.122;5.404;2024-02-21T05:03:02;11.18;;;3.65;;
75413;SDS011;64758;52.122;5.404;2024-02-21T05:05:29;6.30;;;3.20;;
75413;SDS011;64758;52.122;5.404;2024-02-21T05:07:55;6.07;;;3.20;;
75413;SDS011;64758;52.122;5.404;2024-02-21T05:10:22;7.68;;;3.58;;
75413;SDS011;64758;52.122;5.404;2024-02-21T05:12:49;6.30;;;2.97;;
75413;SDS011;64758;52.122;5.404;2024-02-21T05:15:16;9.00;;;3.60;;
75413;SDS011;64758;52.122;5.404;2024-02-21T05:17:42;8.32;;;3.55;;
75413;SDS011;64758;52.122;5.404;2024-02-21T05:20:09;9.73;;;4.20;;
75413;SDS011;64758;52.122;5.404;2024-02-21T05:22:37;7.47;;;3.55;;
75413;SDS011;64758;52.122;5.404;2024-02-21T05:25:03;6.93;;;3.60;;
75413;SDS011;64758;52.122;5.404;2024-02-21T05:27:30;7.95;;;3.40;;
75413;SDS011;64758;52.122;5.404;2024-02-21T05:29:57;8.27;;;3.85;;
75413;SDS011;64758;52.122;5.404;2024-02-21T05:32:25;8.50;;;3.50;;
75413;SDS011;64758;52.122;5.404;2024-02-21T05:34:52;9.65;;;4.00;;
75413;SDS011;64758;52.122;5.404;2024-02-21T05:37:19;9.90;;;3.13;;
75413;SDS011;64758;52.122;5.404;2024-02-21T05:39:46;5.47;;;3.28;;
75413;SDS011;64758;52.122;5.404;2024-02-21T05:42:12;8.40;;;3.90;;
75413;SDS011;64758;52.122;5.404;2024-02-21T05:44:39;9.32;;;3.70;;
75413;SDS011;64758;52.122;5.404;2024-02-21T05:47:05;5.75;;;3.55;;
75413;SDS011;64758;52.122;5.404;2024-02-21T05:49:36;9.83;;;3.63;;
75413;SDS011;64758;52.122;5.404;2024-02-21T05:52:03;10.85;;;3.90;;
75413;SDS011;64758;52.122;5.404;2024-02-21T05:54:32;7.97;;;3.45;;
75413;SDS011;64758;52.122;5.404;2024-02-21T05:56:59;7.53;;;4.25;;
75413;SDS011;64758;52.122;5.404;2024-02-21T05:59:25;5.95;;;3.33;;
75413;SDS011;64758;52.122;5.404;2024-02-21T06:01:55;10.10;;;3.93;;
75413;SDS011;64758;52.122;5.404;2024-02-21T06:04:24;10.05;;;4.60;;
75413;SDS011;64758;52.122;5.404;2024-02-21T06:06:50;7.82;;;3.80;;
75413;SDS011;64758;52.122;5.404;2024-02-21T06:09:17;7.70;;;3.90;;
75413;SDS011;64758;52.122;5.404;2024-02-21T06:11:44;8.68;;;4.10;;
75413;SDS011;64758;52.122;5.404;2024-02-21T06:14:12;9.03;;;4.53;;
75413;SDS011;64758;52.122;5.404;2024-02-21T06:16:39;7.85;;;3.92;;
75413;SDS011;64758;52.122;5.404;2024-02-21T06:19:06;9.10;;;4.50;;
75413;SDS011;64758;52.122;5.404;2024-02-21T06:21:36;10.95;;;4.45;;
75413;SDS011;64758;52.122;5.404;2024-02-21T06:24:03;12.93;;;4.88;;
75413;SDS011;64758;52.122;5.404;2024-02-21T06:26:30;8.90;;;4.57;;
75413;SDS011;64758;52.122;5.404;2024-02-21T06:28:56;9.27;;;4.40;;
75413;SDS011;64758;52.122;5.404;2024-02-21T06:31:23;8.60;;;4.57;;
75413;SDS011;64758;52.122;5.404;2024-02-21T06:33:50;10.48;;;5.00;;
75413;SDS011;64758;52.122;5.404;2024-02-21T06:36:17;12.00;;;5.82;;
75413;SDS011;64758;52.122;5.404;2024-02-21T06:38:43;11.30;;;5.53;;
75413;SDS011;64758;52.122;5.404;2024-02-21T06:41:19;11.95;;;5.53;;
75413;SDS011;64758;52.122;5.404;2024-02-21T06:43:46;13.88;;;6.15;;
75413;SDS011;64758;52.122;5.404;2024-02-21T06:46:26;13.18;;;6.22;;
75413;SDS011;64758;52.122;5.404;2024-02-21T06:48:55;12.52;;;6.70;;
75413;SDS011;64758;52.122;5.404;2024-02-21T06:51:24;15.67;;;6.80;;
75413;SDS011;64758;52.122;5.404;2024-02-21T06:53:53;12.63;;;6.70;;
75413;SDS011;64758;52.122;5.404;2024-02-21T06:56:20;16.27;;;6.47;;
75413;SDS011;64758;52.122;5.404;2024-02-21T06:58:53;22.88;;;7.47;;
75413;SDS011;64758;52.122;5.404;2024-02-21T07:01:20;16.38;;;7.95;;
75413;SDS011;64758;52.122;5.404;2024-02-21T07:03:46;15.33;;;8.47;;
75413;SDS011;64758;52.122;5.404;2024-02-21T07:06:13;16.88;;;7.95;;
75413;SDS011;64758;52.122;5.404;2024-02-21T07:08:40;18.63;;;7.78;;
75413;SDS011;64758;52.122;5.404;2024-02-21T07:11:06;19.88;;;8.10;;
75413;SDS011;64758;52.122;5.404;2024-02-21T07:13:33;16.25;;;8.32;;
75413;SDS011;64758;52.122;5.404;2024-02-21T07:16:00;16.77;;;8.13;;
75413;SDS011;64758;52.122;5.404;2024-02-21T07:18:26;15.48;;;7.20;;
75413;SDS011;64758;52.122;5.404;2024-02-21T07:20:53;13.95;;;7.70;;
75413;SDS011;64758;52.122;5.404;2024-02-21T07:23:19;18.10;;;7.55;;
75413;SDS011;64758;52.122;5.404;2024-02-21T07:25:46;16.73;;;7.55;;
75413;SDS011;64758;52.122;5.404;2024-02-21T07:28:12;14.37;;;6.60;;
75413;SDS011;64758;52.122;5.404;2024-02-21T07:30:40;16.30;;;7.03;;
75413;SDS011;64758;52.122;5.404;2024-02-21T07:33:07;12.52;;;6.18;;
75413;SDS011;64758;52.122;5.404;2024-02-21T07:35:33;13.43;;;5.88;;
75413;SDS011;64758;52.122;5.404;2024-02-21T07:38:00;15.32;;;6.30;;
75413;SDS011;64758;52.122;5.404;2024-02-21T07:40:27;13.60;;;5.97;;
75413;SDS011;64758;52.122;5.404;2024-02-21T07:42:53;17.20;;;6.45;;
75413;SDS011;64758;52.122;5.404;2024-02-21T07:45:20;11.63;;;5.95;;
75413;SDS011;64758;52.122;5.404;2024-02-21T07:47:50;9.88;;;5.07;;
75413;SDS011;64758;52.122;5.404;2024-02-21T07:50:17;16.67;;;5.97;;
75413;SDS011;64758;52.122;5.404;2024-02-21T07:52:49;12.90;;;5.97;;
75413;SDS011;64758;52.122;5.404;2024-02-21T07:55:16;8.98;;;5.18;;
75413;SDS011;64758;52.122;5.404;2024-02-21T07:57:43;12.98;;;5.35;;
75413;SDS011;64758;52.122;5.404;2024-02-21T08:00:09;11.45;;;5.22;;
75413;SDS011;64758;52.122;5.404;2024-02-21T08:02:41;11.75;;;5.72;;
75413;SDS011;64758;52.122;5.404;2024-02-21T08:05:10;12.07;;;5.37;;
75413;SDS011;64758;52.122;5.404;2024-02-21T08:07:38;14.05;;;5.22;;
75413;SDS011;64758;52.122;5.404;2024-02-21T08:10:05;16.10;;;5.63;;
75413;SDS011;64758;52.122;5.404;2024-02-21T08:12:35;17.58;;;6.25;;
75413;SDS011;64758;52.122;5.404;2024-02-21T08:15:02;13.52;;;5.47;;
75413;SDS011;64758;52.122;5.404;2024-02-21T08:17:34;13.50;;;5.23;;
75413;SDS011;64758;52.122;5.404;2024-02-21T08:20:00;11.45;;;5.53;;
75413;SDS011;64758;52.122;5.404;2024-02-21T08:22:27;10.68;;;5.65;;
75413;SDS011;64758;52.122;5.404;2024-02-21T08:24:54;11.35;;;6.20;;
75413;SDS011;64758;52.122;5.404;2024-02-21T08:27:21;11.82;;;5.95;;
75413;SDS011;64758;52.122;5.404;2024-02-21T08:29:47;14.17;;;5.27;;
75413;SDS011;64758;52.122;5.404;2024-02-21T08:32:14;12.38;;;5.78;;
75413;SDS011;64758;52.122;5.404;2024-02-21T08:34:40;11.23;;;6.43;;
75413;SDS011;64758;52.122;5.404;2024-02-21T08:37:07;13.55;;;5.30;;
75413;SDS011;64758;52.122;5.404;2024-02-21T08:39:34;16.05;;;6.40;;
75413;SDS011;64758;52.122;5.404;2024-02-21T08:42:01;14.40;;;6.87;;
75413;SDS011;64758;52.122;5.404;2024-02-21T08:44:27;14.63;;;6.57;;
75413;SDS011;64758;52.122;5.404;2024-02-21T08:46:55;13.18;;;6.43;;
75413;SDS011;64758;52.122;5.404;2024-02-21T08:49:23;13.05;;;6.60;;
75413;SDS011;64758;52.122;5.404;2024-02-21T08:51:51;16.67;;;6.18;;
75413;SDS011;64758;52.122;5.404;2024-02-21T08:54:18;11.20;;;6.00;;
75413;SDS011;64758;52.122;5.404;2024-02-21T08:56:44;12.00;;;6.15;;
75413;SDS011;64758;52.122;5.404;2024-02-21T08:59:11;11.00;;;5.90;;
75413;SDS011;64758;52.122;5.404;2024-02-21T09:01:38;11.05;;;5.18;;
75413;SDS011;64758;52.122;5.404;2024-02-21T09:04:04;13.40;;;6.07;;
75413;SDS011;64758;52.122;5.404;2024-02-21T09:06:31;13.37;;;6.00;;
75413;SDS011;64758;52.122;5.404;2024-02-21T09:09:00;12.73;;;6.90;;
75413;SDS011;64758;52.122;5.404;2024-02-21T09:11:27;11.23;;;5.80;;
75413;SDS011;64758;52.122;5.404;2024-02-21T09:13:54;11.57;;;5.38;;
75413;SDS011;64758;52.122;5.404;2024-02-21T09:16:21;13.02;;;5.97;;
75413;SDS011;64758;52.122;5.404;2024-02-21T09:18:49;15.53;;;5.60;;
75413;SDS011;64758;52.122;5.404;2024-02-21T09:21:16;13.23;;;5.72;;
75413;SDS011;64758;52.122;5.404;2024-02-21T09:23:42;9.68;;;4.70;;
75413;SDS011;64758;52.122;5.404;2024-02-21T09:26:09;9.02;;;4.78;;
75413;SDS011;64758;52.122;5.404;2024-02-21T09:28:40;10.95;;;5.28;;
75413;SDS011;64758;52.122;5.404;2024-02-21T09:31:06;10.37;;;4.60;;
75413;SDS011;64758;52.122;5.404;2024-02-21T09:33:33;11.35;;;5.35;;
75413;SDS011;64758;52.122;5.404;2024-02-21T09:36:00;10.40;;;5.20;;
75413;SDS011;64758;52.122;5.404;2024-02-21T09:38:27;10.40;;;5.00;;
75413;SDS011;64758;52.122;5.404;2024-02-21T09:40:55;9.90;;;4.53;;
75413;SDS011;64758;52.122;5.404;2024-02-21T09:43:27;9.47;;;4.63;;
75413;SDS011;64758;52.122;5.404;2024-02-21T09:45:55;11.15;;;4.38;;
75413;SDS011;64758;52.122;5.404;2024-02-21T09:51:16;7.15;;;4.55;;
75413;SDS011;64758;52.122;5.404;2024-02-21T09:53:45;12.63;;;4.55;;
75413;SDS011;64758;52.122;5.404;2024-02-21T09:56:27;11.07;;;4.57;;
75413;SDS011;64758;52.122;5.404;2024-02-21T09:58:54;9.02;;;3.97;;
75413;SDS011;64758;52.122;5.404;2024-02-21T10:01:22;10.00;;;3.85;;
75413;SDS011;64758;52.122;5.404;2024-02-21T10:04:00;6.32;;;3.83;;
75413;SDS011;64758;52.122;5.404;2024-02-21T10:06:29;10.27;;;4.10;;
75413;SDS011;64758;52.122;5.404;2024-02-21T10:08:56;11.30;;;4.00;;
75413;SDS011;64758;52.122;5.404;2024-02-21T10:11:23;7.93;;;3.97;;
75413;SDS011;64758;52.122;5.404;2024-02-21T10:13:50;9.23;;;4.00;;
75413;SDS011;64758;52.122;5.404;2024-02-21T10:16:17;6.70;;;3.40;;
75413;SDS011;64758;52.122;5.404;2024-02-21T10:18:44;7.65;;;4.18;;
75413;SDS011;64758;52.122;5.404;2024-02-21T10:21:10;8.77;;;3.63;;
75413;SDS011;64758;52.122;5.404;2024-02-21T10:23:41;8.73;;;3.78;;
75413;SDS011;64758;52.122;5.404;2024-02-21T10:26:18;6.13;;;3.28;;
75413;SDS011;64758;52.122;5.404;2024-02-21T10:28:46;10.00;;;3.80;;
75413;SDS011;64758;52.122;5.404;2024-02-21T10:31:24;6.50;;;3.58;;
75413;SDS011;64758;52.122;5.404;2024-02-21T10:33:58;6.47;;;3.07;;
75413;SDS011;64758;52.122;5.404;2024-02-21T10:36:32;6.50;;;3.22;;
75413;SDS011;64758;52.122;5.404;2024-02-21T10:38:59;4.60;;;2.90;;
75413;SDS011;64758;52.122;5.404;2024-02-21T10:41:25;10.73;;;3.65;;
75413;SDS011;64758;52.122;5.404;2024-02-21T10:43:54;6.50;;;3.58;;
75413;SDS011;64758;52.122;5.404;2024-02-21T10:46:23;5.33;;;3.13;;
75413;SDS011;64758;52.122;5.404;2024-02-21T10:49:09;4.72;;;2.75;;
75413;SDS011;64758;52.122;5.404;2024-02-21T10:51:40;6.88;;;3.22;;
75413;SDS011;64758;52.122;5.404;2024-02-21T10:56:55;5.32;;;2.60;;
75413;SDS011;64758;52.122;5.404;2024-02-21T10:59:24;4.83;;;2.70;;
75413;SDS011;64758;52.122;5.404;2024-02-21T11:01:52;7.22;;;2.92;;
75413;SDS011;64758;52.122;5.404;2024-02-21T11:04:24;4.53;;;2.67;;
75413;SDS011;64758;52.122;5.404;2024-02-21T11:06:52;4.95;;;2.63;;
75413;SDS011;64758;52.122;5.404;2024-02-21T11:09:29;4.20;;;2.63;;
75413;SDS011;64758;52.122;5.404;2024-02-21T11:11:56;3.87;;;2.70;;
75413;SDS011;64758;52.122;5.404;2024-02-21T11:14:26;6.68;;;2.80;;
75413;SDS011;64758;52.122;5.404;2024-02-21T11:16:54;4.72;;;3.10;;
75413;SDS011;64758;52.122;5.404;2024-02-21T11:19:23;4.93;;;3.58;;
75413;SDS011;64758;52.122;5.404;2024-02-21T11:21:52;7.68;;;3.55;;
75413;SDS011;64758;52.122;5.404;2024-02-21T11:27:12;5.57;;;3.35;;
75413;SDS011;64758;52.122;5.404;2024-02-21T11:32:11;6.03;;;3.45;;
75413;SDS011;64758;52.122;5.404;2024-02-21T11:34:41;7.05;;;3.78;;
75413;SDS011;64758;52.122;5.404;2024-02-21T11:37:19;5.80;;;3.57;;
75413;SDS011;64758;52.122;5.404;2024-02-21T11:39:45;7.00;;;3.85;;
75413;SDS011;64758;52.122;5.404;2024-02-21T11:42:12;6.38;;;4.03;;
75413;SDS011;64758;52.122;5.404;2024-02-21T11:44:39;5.38;;;3.70;;
75413;SDS011;64758;52.122;5.404;2024-02-21T11:47:08;6.10;;;3.85;;
75413;SDS011;64758;52.122;5.404;2024-02-21T11:49:39;6.60;;;3.50;;
75413;SDS011;64758;52.122;5.404;2024-02-21T11:52:12;7.07;;;3.88;;
75413;SDS011;64758;52.122;5.404;2024-02-21T11:54:41;4.60;;;3.45;;
75413;SDS011;64758;52.122;5.404;2024-02-21T11:57:08;6.82;;;3.80;;
75413;SDS011;64758;52.122;5.404;2024-02-21T11:59:35;8.15;;;4.00;;
75413;SDS011;64758;52.122;5.404;2024-02-21T12:02:01;7.40;;;3.73;;
75413;SDS011;64758;52.122;5.404;2024-02-21T12:04:32;5.93;;;3.70;;
75413;SDS011;64758;52.122;5.404;2024-02-21T12:06:59;5.95;;;3.80;;
75413;SDS011;64758;52.122;5.404;2024-02-21T12:09:26;6.28;;;4.05;;
75413;SDS011;64758;52.122;5.404;2024-02-21T12:12:05;5.35;;;4.03;;
75413;SDS011;64758;52.122;5.404;2024-02-21T12:14:35;7.23;;;3.80;;
75413;SDS011;64758;52.122;5.404;2024-02-21T12:17:02;6.97;;;4.25;;
75413;SDS011;64758;52.122;5.404;2024-02-21T12:19:33;7.57;;;3.97;;
75413;SDS011;64758;52.122;5.404;2024-02-21T12:22:00;5.90;;;3.80;;
75413;SDS011;64758;52.122;5.404;2024-02-21T12:24:28;5.72;;;3.78;;
75413;SDS011;64758;52.122;5.404;2024-02-21T12:26:55;8.27;;;3.80;;
75413;SDS011;64758;52.122;5.404;2024-02-21T12:29:23;6.32;;;3.47;;
75413;SDS011;64758;52.122;5.404;2024-02-21T12:31:51;6.95;;;3.95;;
75413;SDS011;64758;52.122;5.404;2024-02-21T12:34:18;7.90;;;3.78;;
75413;SDS011;64758;52.122;5.404;2024-02-21T12:36:59;7.15;;;3.67;;
75413;SDS011;64758;52.122;5.404;2024-02-21T12:39:27;6.77;;;3.77;;
75413;SDS011;64758;52.122;5.404;2024-02-21T12:41:54;5.72;;;3.47;;
75413;SDS011;64758;52.122;5.404;2024-02-21T12:44:23;6.32;;;3.28;;
75413;SDS011;64758;52.122;5.404;2024-02-21T12:46:50;8.82;;;3.60;;
75413;SDS011;64758;52.122;5.404;2024-02-21T12:49:20;5.55;;;3.42;;
75413;SDS011;64758;52.122;5.404;2024-02-21T12:51:47;7.13;;;3.17;;
75413;SDS011;64758;52.122;5.404;2024-02-21T12:54:13;7.05;;;2.75;;
75413;SDS011;64758;52.122;5.404;2024-02-21T12:56:40;6.97;;;3.67;;
75413;SDS011;64758;52.122;5.404;2024-02-21T12:59:07;10.75;;;3.83;;
75413;SDS011;64758;52.122;5.404;2024-02-21T13:01:36;4.68;;;3.10;;
75413;SDS011;64758;52.122;5.404;2024-02-21T13:04:04;4.70;;;2.70;;
75413;SDS011;64758;52.122;5.404;2024-02-21T13:06:31;5.93;;;3.13;;
75413;SDS011;64758;52.122;5.404;2024-02-21T13:08:58;6.18;;;2.72;;
75413;SDS011;64758;52.122;5.404;2024-02-21T13:11:25;6.60;;;3.45;;
75413;SDS011;64758;52.122;5.404;2024-02-21T13:13:54;4.68;;;3.20;;
75413;SDS011;64758;52.122;5.404;2024-02-21T13:16:21;6.43;;;3.03;;
75413;SDS011;64758;52.122;5.404;2024-02-21T13:18:49;7.45;;;2.85;;
75413;SDS011;64758;52.122;5.404;2024-02-21T13:21:15;7.97;;;4.00;;
75413;SDS011;64758;52.122;5.404;2024-02-21T13:23:42;5.75;;;2.70;;
75413;SDS011;64758;52.122;5.404;2024-02-21T13:26:10;8.18;;;3.17;;
75413;SDS011;64758;52.122;5.404;2024-02-21T13:28:38;6.73;;;2.90;;
75413;SDS011;64758;52.122;5.404;2024-02-21T13:31:05;7.68;;;2.70;;
75413;SDS011;64758;52.122;5.404;2024-02-21T13:33:32;7.63;;;2.97;;
75413;SDS011;64758;52.122;5.404;2024-02-21T13:35:58;4.65;;;3.05;;
75413;SDS011;64758;52.122;5.404;2024-02-21T13:38:25;6.03;;;2.50;;
75413;SDS011;64758;52.122;5.404;2024-02-21T13:40:53;6.20;;;2.53;;
75413;SDS011;64758;52.122;5.404;2024-02-21T13:43:20;7.20;;;2.60;;
75413;SDS011;64758;52.122;5.404;2024-02-21T13:45:57;5.15;;;2.42;;
75413;SDS011;64758;52.122;5.404;2024-02-21T13:48:25;6.75;;;2.80;;
75413;SDS011;64758;52.122;5.404;2024-02-21T13:50:53;5.25;;;2.70;;
75413;SDS011;64758;52.122;5.404;2024-02-21T13:53:20;4.40;;;2.43;;
75413;SDS011;64758;52.122;5.404;2024-02-21T13:55:47;4.95;;;2.25;;
75413;SDS011;64758;52.122;5.404;2024-02-21T13:58:15;7.00;;;2.53;;
75413;SDS011;64758;52.122;5.404;2024-02-21T14:00:42;5.20;;;2.15;;
75413;SDS011;64758;52.122;5.404;2024-02-21T14:03:08;6.00;;;2.20;;
75413;SDS011;64758;52.122;5.404;2024-02-21T14:05:36;5.53;;;2.23;;
75413;SDS011;64758;52.122;5.404;2024-02-21T14:08:06;5.47;;;2.20;;
75413;SDS011;64758;52.122;5.404;2024-02-21T14:10:33;6.20;;;2.47;;
75413;SDS011;64758;52.122;5.404;2024-02-21T14:13:00;4.20;;;2.38;;
75413;SDS011;64758;52.122;5.404;2024-02-21T14:15:27;8.85;;;2.50;;
75413;SDS011;64758;52.122;5.404;2024-02-21T14:17:53;7.43;;;2.53;;
75413;SDS011;64758;52.122;5.404;2024-02-21T14:20:21;4.78;;;2.13;;
75413;SDS011;64758;52.122;5.404;2024-02-21T14:22:48;6.40;;;2.28;;
75413;SDS011;64758;52.122;5.404;2024-02-21T14:25:15;5.55;;;2.00;;
75413;SDS011;64758;52.122;5.404;2024-02-21T14:27:42;6.32;;;2.00;;
75413;SDS011;64758;52.122;5.404;2024-02-21T14:30:10;7.30;;;2.10;;
75413;SDS011;64758;52.122;5.404;2024-02-21T14:32:37;4.20;;;2.00;;
75413;SDS011;64758;52.122;5.404;2024-02-21T14:35:06;6.53;;;2.47;;
75413;SDS011;64758;52.122;5.404;2024-02-21T14:37:33;7.05;;;1.80;;
75413;SDS011;64758;52.122;5.404;2024-02-21T14:40:00;7.45;;;2.15;;
75413;SDS011;64758;52.122;5.404;2024-02-21T14:42:27;7.57;;;2.40;;
75413;SDS011;64758;52.122;5.404;2024-02-21T14:44:53;4.78;;;2.10;;
75413;SDS011;64758;52.122;5.404;2024-02-21T14:47:30;4.68;;;2.22;;
75413;SDS011;64758;52.122;5.404;2024-02-21T14:49:57;5.47;;;2.25;;
75413;SDS011;64758;52.122;5.404;2024-02-21T14:52:24;5.38;;;2.20;;
75413;SDS011;64758;52.122;5.404;2024-02-21T14:54:56;4.50;;;2.40;;
75413;SDS011;64758;52.122;5.404;2024-02-21T14:57:22;4.68;;;1.88;;